sensor_id;sensor_type;location;lat;lon;timestamp;pressure;altitude;pressure_sealevel;temperature;humidity
45040;BME280;30778;53.574;7.770;2023-06-22T00:02:15;102003.00;;;15.09;53.10
45040;BME280;30778;53.574;7.770;2023-06-22T00:04:40;102002.88;;;14.90;53.51
45040;BME280;30778;53.574;7.770;2023-06-22T00:07:06;102002.50;;;14.99;53.55
45040;BME280;30778;53.574;7.770;2023-06-22T00:09:31;101996.28;;;15.02;53.43
45040;BME280;30778;53.574;7.770;2023-06-22T00:11:57;101996.91;;;15.08;53.33
45040;BME280;30778;53.574;7.770;2023-06-22T00:14:23;101997.94;;;15.04;53.17
45040;BME280;30778;53.574;7.770;2023-06-22T00:16:48;101995.31;;;15.04;53.01
45040;BME280;30778;53.574;7.770;2023-06-22T00:19:17;102004.25;;;15.00;53.21
45040;BME280;30778;53.574;7.770;2023-06-22T00:21:44;101991.13;;;14.98;53.30
45040;BME280;30778;53.574;7.770;2023-06-22T00:24:12;101998.22;;;14.96;53.27
45040;BME280;30778;53.574;7.770;2023-06-22T00:26:37;101997.53;;;14.93;53.03
45040;BME280;30778;53.574;7.770;2023-06-22T00:29:05;102000.38;;;14.87;53.03
45040;BME280;30778;53.574;7.770;2023-06-22T00:31:30;102004.47;;;14.72;53.58
45040;BME280;30778;53.574;7.770;2023-06-22T00:33:55;102009.63;;;14.53;54.01
45040;BME280;30778;53.574;7.770;2023-06-22T00:36:21;102008.69;;;14.54;54.47
45040;BME280;30778;53.574;7.770;2023-06-22T00:38:46;102012.97;;;14.56;54.38
45040;BME280;30778;53.574;7.770;2023-06-22T00:41:12;102010.34;;;14.56;54.49
45040;BME280;30778;53.574;7.770;2023-06-22T00:43:38;102018.81;;;14.65;54.04
45040;BME280;30778;53.574;7.770;2023-06-22T00:46:04;102016.97;;;14.67;53.84
45040;BME280;30778;53.574;7.770;2023-06-22T00:48:29;102014.75;;;14.56;53.95
45040;BME280;30778;53.574;7.770;2023-06-22T00:50:55;102013.16;;;14.52;53.97
45040;BME280;30778;53.574;7.770;2023-06-22T00:53:22;102010.97;;;14.40;54.11
45040;BME280;30778;53.574;7.770;2023-06-22T00:55:48;102015.66;;;14.31;54.36
45040;BME280;30778;53.574;7.770;2023-06-22T00:58:17;102006.25;;;14.26;54.17
45040;BME280;30778;53.574;7.770;2023-06-22T01:00:48;102009.44;;;14.10;54.44
45040;BME280;30778;53.574;7.770;2023-06-22T01:03:13;102009.97;;;13.97;54.80
45040;BME280;30778;53.574;7.770;2023-06-22T01:05:39;102009.84;;;14.00;54.88
45040;BME280;30778;53.574;7.770;2023-06-22T01:08:19;102009.25;;;13.91;54.99
45040;BME280;30778;53.574;7.770;2023-06-22T01:10:51;102018.16;;;13.87;54.85
45040;BME280;30778;53.574;7.770;2023-06-22T01:13:30;102014.63;;;13.88;54.92
45040;BME280;30778;53.574;7.770;2023-06-22T01:16:25;102018.94;;;13.89;54.91
45040;BME280;30778;53.574;7.770;2023-06-22T01:18:54;102009.53;;;13.84;55.00
45040;BME280;30778;53.574;7.770;2023-06-22T01:21:21;102003.63;;;13.77;55.00
45040;BME280;30778;53.574;7.770;2023-06-22T01:24:39;101998.81;;;13.65;55.49
45040;BME280;30778;53.574;7.770;2023-06-22T01:26:45;102012.09;;;13.60;55.61
45040;BME280;30778;53.574;7.770;2023-06-22T01:29:15;102010.84;;;13.72;55.25
45040;BME280;30778;53.574;7.770;2023-06-22T01:31:42;102004.06;;;13.65;55.29
45040;BME280;30778;53.574;7.770;2023-06-22T01:34:12;102007.50;;;13.67;55.30
45040;BME280;30778;53.574;7.770;2023-06-22T01:36:38;102000.88;;;13.80;54.89
45040;BME280;30778;53.574;7.770;2023-06-22T01:39:05;102002.63;;;13.81;54.59
45040;BME280;30778;53.574;7.770;2023-06-22T01:41:37;102006.94;;;13.82;54.35
45040;BME280;30778;53.574;7.770;2023-06-22T01:44:07;101992.78;;;13.86;54.09
45040;BME280;30778;53.574;7.770;2023-06-22T01:46:35;102004.16;;;13.87;54.20
45040;BME280;30778;53.574;7.770;2023-06-22T01:49:05;102006.75;;;13.88;53.87
45040;BME280;30778;53.574;7.770;2023-06-22T01:51:31;102005.59;;;13.72;54.52
45040;BME280;30778;53.574;7.770;2023-06-22T01:53:59;102008.97;;;13.74;54.88
45040;BME280;30778;53.574;7.770;2023-06-22T01:56:26;102009.22;;;13.68;54.68
45040;BME280;30778;53.574;7.770;2023-06-22T02:01:38;102010.84;;;13.72;54.85
45040;BME280;30778;53.574;7.770;2023-06-22T02:04:27;102015.16;;;13.73;54.92
45040;BME280;30778;53.574;7.770;2023-06-22T02:06:56;102015.31;;;13.68;54.85
45040;BME280;30778;53.574;7.770;2023-06-22T02:09:25;102024.97;;;13.68;54.92
45040;BME280;30778;53.574;7.770;2023-06-22T02:11:55;102014.81;;;13.59;55.12
45040;BME280;30778;53.574;7.770;2023-06-22T02:14:22;102005.16;;;13.59;55.18
45040;BME280;30778;53.574;7.770;2023-06-22T02:16:49;102006.63;;;13.66;55.19
45040;BME280;30778;53.574;7.770;2023-06-22T02:19:15;102004.00;;;13.66;55.07
45040;BME280;30778;53.574;7.770;2023-06-22T02:21:41;101998.59;;;13.71;54.86
45040;BME280;30778;53.574;7.770;2023-06-22T02:24:06;101998.81;;;13.65;54.56
45040;BME280;30778;53.574;7.770;2023-06-22T02:26:34;101998.00;;;13.63;54.75
45040;BME280;30778;53.574;7.770;2023-06-22T02:29:01;101997.09;;;13.64;54.89
45040;BME280;30778;53.574;7.770;2023-06-22T02:31:27;101996.28;;;13.62;54.95
45040;BME280;30778;53.574;7.770;2023-06-22T02:33:57;101989.19;;;13.65;55.00
45040;BME280;30778;53.574;7.770;2023-06-22T02:36:23;101993.50;;;13.66;55.04
45040;BME280;30778;53.574;7.770;2023-06-22T02:38:52;101986.59;;;13.64;54.71
45040;BME280;30778;53.574;7.770;2023-06-22T02:41:18;101986.47;;;13.67;54.36
45040;BME280;30778;53.574;7.770;2023-06-22T02:43:47;101994.31;;;13.68;54.27
45040;BME280;30778;53.574;7.770;2023-06-22T02:46:13;101995.28;;;13.66;54.41
45040;BME280;30778;53.574;7.770;2023-06-22T02:48:40;101990.03;;;13.66;54.29
45040;BME280;30778;53.574;7.770;2023-06-22T02:51:07;101991.97;;;13.61;54.38
45040;BME280;30778;53.574;7.770;2023-06-22T02:53:34;101987.59;;;13.60;54.54
45040;BME280;30778;53.574;7.770;2023-06-22T02:56:01;101988.03;;;13.47;54.78
45040;BME280;30778;53.574;7.770;2023-06-22T02:58:30;101989.13;;;13.40;55.00
45040;BME280;30778;53.574;7.770;2023-06-22T03:00:55;102004.63;;;13.48;55.03
45040;BME280;30778;53.574;7.770;2023-06-22T03:03:21;102003.53;;;13.53;54.76
45040;BME280;30778;53.574;7.770;2023-06-22T03:05:46;102010.34;;;13.61;54.67
45040;BME280;30778;53.574;7.770;2023-06-22T03:08:12;102009.94;;;13.71;54.55
45040;BME280;30778;53.574;7.770;2023-06-22T03:10:38;102005.59;;;13.72;54.24
45040;BME280;30778;53.574;7.770;2023-06-22T03:13:03;102000.41;;;13.69;54.26
45040;BME280;30778;53.574;7.770;2023-06-22T03:15:29;101999.69;;;13.65;54.20
45040;BME280;30778;53.574;7.770;2023-06-22T03:17:56;101996.97;;;13.67;54.38
45040;BME280;30778;53.574;7.770;2023-06-22T03:20:22;101996.09;;;13.68;54.37
45040;BME280;30778;53.574;7.770;2023-06-22T03:22:48;102000.31;;;13.72;54.23
45040;BME280;30778;53.574;7.770;2023-06-22T03:25:14;102002.16;;;13.70;54.26
45040;BME280;30778;53.574;7.770;2023-06-22T03:27:42;102001.09;;;13.74;54.18
45040;BME280;30778;53.574;7.770;2023-06-22T03:30:11;102003.50;;;13.80;54.22
45040;BME280;30778;53.574;7.770;2023-06-22T03:32:36;102010.72;;;13.75;54.14
45040;BME280;30778;53.574;7.770;2023-06-22T03:35:03;102005.25;;;13.81;54.17
45040;BME280;30778;53.574;7.770;2023-06-22T03:37:29;102002.38;;;13.87;54.05
45040;BME280;30778;53.574;7.770;2023-06-22T03:39:55;102006.41;;;13.98;53.86
45040;BME280;30778;53.574;7.770;2023-06-22T03:42:21;102002.91;;;13.97;54.00
45040;BME280;30778;53.574;7.770;2023-06-22T03:44:46;102008.97;;;13.99;53.80
45040;BME280;30778;53.574;7.770;2023-06-22T03:47:12;102011.31;;;14.07;53.81
45040;BME280;30778;53.574;7.770;2023-06-22T03:49:38;102006.41;;;14.21;53.35
45040;BME280;30778;53.574;7.770;2023-06-22T03:52:04;102007.91;;;14.28;53.36
45040;BME280;30778;53.574;7.770;2023-06-22T03:54:30;102010.31;;;14.34;53.32
45040;BME280;30778;53.574;7.770;2023-06-22T03:56:58;102003.19;;;14.36;53.07
45040;BME280;30778;53.574;7.770;2023-06-22T03:59:24;102010.59;;;14.50;52.87
45040;BME280;30778;53.574;7.770;2023-06-22T04:01:50;102014.97;;;14.50;53.17
45040;BME280;30778;53.574;7.770;2023-06-22T04:04:17;102011.22;;;14.57;52.73
45040;BME280;30778;53.574;7.770;2023-06-22T04:06:42;102014.53;;;14.62;53.03
45040;BME280;30778;53.574;7.770;2023-06-22T04:09:08;102007.06;;;14.73;52.87
45040;BME280;30778;53.574;7.770;2023-06-22T04:11:33;102012.94;;;14.80;52.81
45040;BME280;30778;53.574;7.770;2023-06-22T04:13:59;102010.13;;;14.85;52.85
45040;BME280;30778;53.574;7.770;2023-06-22T04:16:25;102010.78;;;14.90;53.00
45040;BME280;30778;53.574;7.770;2023-06-22T04:18:50;102011.72;;;14.89;52.38
45040;BME280;30778;53.574;7.770;2023-06-22T04:21:16;102011.47;;;14.95;52.77
45040;BME280;30778;53.574;7.770;2023-06-22T04:23:41;102008.13;;;15.12;52.51
45040;BME280;30778;53.574;7.770;2023-06-22T04:26:08;102008.88;;;15.15;52.92
45040;BME280;30778;53.574;7.770;2023-06-22T04:28:33;102008.28;;;15.31;53.08
45040;BME280;30778;53.574;7.770;2023-06-22T04:31:03;102002.47;;;15.43;52.64
45040;BME280;30778;53.574;7.770;2023-06-22T04:33:30;101997.78;;;15.50;52.73
45040;BME280;30778;53.574;7.770;2023-06-22T04:35:55;102001.56;;;15.65;53.00
45040;BME280;30778;53.574;7.770;2023-06-22T04:38:26;102000.31;;;15.73;52.59
45040;BME280;30778;53.574;7.770;2023-06-22T04:40:51;102006.75;;;15.87;52.59
45040;BME280;30778;53.574;7.770;2023-06-22T04:43:19;102005.78;;;16.08;52.44
45040;BME280;30778;53.574;7.770;2023-06-22T04:45:44;102007.16;;;16.17;51.51
45040;BME280;30778;53.574;7.770;2023-06-22T04:48:10;102010.09;;;16.30;51.68
45040;BME280;30778;53.574;7.770;2023-06-22T04:50:38;102012.22;;;16.40;51.54
45040;BME280;30778;53.574;7.770;2023-06-22T04:53:06;102002.81;;;16.54;51.98
45040;BME280;30778;53.574;7.770;2023-06-22T04:55:33;102000.06;;;16.74;51.32
45040;BME280;30778;53.574;7.770;2023-06-22T04:57:58;102003.41;;;16.97;50.67
45040;BME280;30778;53.574;7.770;2023-06-22T05:00:30;102010.63;;;17.11;50.59
45040;BME280;30778;53.574;7.770;2023-06-22T05:02:56;102013.97;;;17.14;50.17
45040;BME280;30778;53.574;7.770;2023-06-22T05:05:24;102011.66;;;17.26;49.96
45040;BME280;30778;53.574;7.770;2023-06-22T05:07:50;102005.09;;;17.85;49.19
45040;BME280;30778;53.574;7.770;2023-06-22T05:10:19;102008.63;;;18.51;47.50
45040;BME280;30778;53.574;7.770;2023-06-22T05:12:46;102002.88;;;19.20;45.75
45040;BME280;30778;53.574;7.770;2023-06-22T05:15:13;101995.25;;;19.00;45.67
45040;BME280;30778;53.574;7.770;2023-06-22T05:17:40;101999.03;;;18.96;45.63
45040;BME280;30778;53.574;7.770;2023-06-22T05:20:09;101996.81;;;18.72;45.58
45040;BME280;30778;53.574;7.770;2023-06-22T05:22:35;101996.25;;;19.13;45.10
45040;BME280;30778;53.574;7.770;2023-06-22T05:25:01;101988.97;;;20.33;43.24
45040;BME280;30778;53.574;7.770;2023-06-22T05:27:26;101986.34;;;21.91;40.77
45040;BME280;30778;53.574;7.770;2023-06-22T05:29:52;101987.25;;;23.12;37.31
45040;BME280;30778;53.574;7.770;2023-06-22T05:32:17;101979.75;;;23.87;35.43
45040;BME280;30778;53.574;7.770;2023-06-22T05:34:44;101990.50;;;23.74;36.36
45040;BME280;30778;53.574;7.770;2023-06-22T05:37:09;101987.97;;;24.17;35.56
45040;BME280;30778;53.574;7.770;2023-06-22T05:39:35;101991.13;;;25.19;33.38
45040;BME280;30778;53.574;7.770;2023-06-22T05:42:07;101989.03;;;26.65;29.73
45040;BME280;30778;53.574;7.770;2023-06-22T05:44:33;101994.53;;;27.13;29.83
45040;BME280;30778;53.574;7.770;2023-06-22T05:46:59;101991.00;;;27.69;27.72
45040;BME280;30778;53.574;7.770;2023-06-22T05:49:25;102003.22;;;26.37;30.94
45040;BME280;30778;53.574;7.770;2023-06-22T05:51:55;102006.41;;;25.50;32.61
45040;BME280;30778;53.574;7.770;2023-06-22T05:54:21;101996.47;;;26.52;29.87
45040;BME280;30778;53.574;7.770;2023-06-22T05:56:47;101996.22;;;27.14;29.17
45040;BME280;30778;53.574;7.770;2023-06-22T05:59:12;101996.31;;;27.41;29.18
45040;BME280;30778;53.574;7.770;2023-06-22T06:01:38;102001.72;;;27.69;28.63
45040;BME280;30778;53.574;7.770;2023-06-22T06:04:06;102005.31;;;27.50;29.42
45040;BME280;30778;53.574;7.770;2023-06-22T06:06:35;102006.28;;;27.49;29.24
45040;BME280;30778;53.574;7.770;2023-06-22T06:09:05;102014.47;;;27.67;28.84
45040;BME280;30778;53.574;7.770;2023-06-22T06:11:32;102008.34;;;26.88;29.86
45040;BME280;30778;53.574;7.770;2023-06-22T06:13:58;102002.94;;;26.30;29.89
45040;BME280;30778;53.574;7.770;2023-06-22T06:16:24;102005.31;;;27.40;28.00
45040;BME280;30778;53.574;7.770;2023-06-22T06:18:49;101995.72;;;27.47;28.32
45040;BME280;30778;53.574;7.770;2023-06-22T06:21:16;101995.53;;;26.73;28.47
45040;BME280;30778;53.574;7.770;2023-06-22T06:23:41;102001.44;;;25.45;30.78
45040;BME280;30778;53.574;7.770;2023-06-22T06:26:07;101996.84;;;25.78;30.59
45040;BME280;30778;53.574;7.770;2023-06-22T06:28:33;101993.75;;;25.82;30.18
45040;BME280;30778;53.574;7.770;2023-06-22T06:30:59;101996.47;;;25.61;29.86
45040;BME280;30778;53.574;7.770;2023-06-22T06:33:25;102001.63;;;26.15;29.44
45040;BME280;30778;53.574;7.770;2023-06-22T06:35:50;101998.34;;;26.61;28.00
45040;BME280;30778;53.574;7.770;2023-06-22T06:38:16;101997.22;;;26.83;28.26
45040;BME280;30778;53.574;7.770;2023-06-22T06:40:41;101993.31;;;28.19;25.31
45040;BME280;30778;53.574;7.770;2023-06-22T06:43:07;101999.38;;;28.11;25.41
45040;BME280;30778;53.574;7.770;2023-06-22T06:45:32;101996.84;;;28.38;25.07
45040;BME280;30778;53.574;7.770;2023-06-22T06:47:59;102005.75;;;28.92;24.24
45040;BME280;30778;53.574;7.770;2023-06-22T06:50:25;102002.56;;;28.52;24.98
45040;BME280;30778;53.574;7.770;2023-06-22T06:52:50;101997.50;;;28.67;24.78
45040;BME280;30778;53.574;7.770;2023-06-22T06:55:17;101994.97;;;29.10;24.96
45040;BME280;30778;53.574;7.770;2023-06-22T06:57:48;101993.28;;;29.95;23.03
45040;BME280;30778;53.574;7.770;2023-06-22T07:00:35;101993.38;;;30.28;22.34
45040;BME280;30778;53.574;7.770;2023-06-22T07:03:02;102003.50;;;29.23;22.90
45040;BME280;30778;53.574;7.770;2023-06-22T07:05:27;102005.03;;;28.82;24.36
45040;BME280;30778;53.574;7.770;2023-06-22T07:07:53;101996.09;;;29.77;23.48
45040;BME280;30778;53.574;7.770;2023-06-22T07:10:19;102001.75;;;29.66;23.06
45040;BME280;30778;53.574;7.770;2023-06-22T07:12:44;102004.53;;;28.05;24.94
45040;BME280;30778;53.574;7.770;2023-06-22T07:15:11;102005.81;;;27.26;26.85
45040;BME280;30778;53.574;7.770;2023-06-22T07:17:38;102006.66;;;26.97;27.76
45040;BME280;30778;53.574;7.770;2023-06-22T07:20:06;102004.03;;;27.44;27.30
45040;BME280;30778;53.574;7.770;2023-06-22T07:22:38;102006.63;;;28.11;26.55
45040;BME280;30778;53.574;7.770;2023-06-22T07:25:05;101995.03;;;28.74;25.30
45040;BME280;30778;53.574;7.770;2023-06-22T07:27:56;102008.72;;;29.25;24.14
45040;BME280;30778;53.574;7.770;2023-06-22T07:30:22;101992.91;;;29.90;23.02
45040;BME280;30778;53.574;7.770;2023-06-22T07:32:48;101994.44;;;29.06;24.19
45040;BME280;30778;53.574;7.770;2023-06-22T07:35:13;101994.22;;;29.78;23.64
45040;BME280;30778;53.574;7.770;2023-06-22T07:37:41;101995.03;;;30.13;22.65
45040;BME280;30778;53.574;7.770;2023-06-22T07:40:08;102001.56;;;29.60;24.39
45040;BME280;30778;53.574;7.770;2023-06-22T07:42:34;101996.97;;;29.94;24.22
45040;BME280;30778;53.574;7.770;2023-06-22T07:44:59;102002.84;;;30.41;22.66
45040;BME280;30778;53.574;7.770;2023-06-22T07:47:25;102004.59;;;30.74;23.20
45040;BME280;30778;53.574;7.770;2023-06-22T07:49:53;102008.19;;;30.24;23.05
45040;BME280;30778;53.574;7.770;2023-06-22T07:52:22;101999.91;;;30.17;23.83
45040;BME280;30778;53.574;7.770;2023-06-22T07:54:48;102000.03;;;30.75;22.24
45040;BME280;30778;53.574;7.770;2023-06-22T07:57:13;101989.41;;;30.82;22.68
45040;BME280;30778;53.574;7.770;2023-06-22T07:59:38;101990.25;;;30.57;22.86
45040;BME280;30778;53.574;7.770;2023-06-22T08:02:06;101988.63;;;32.01;21.61
45040;BME280;30778;53.574;7.770;2023-06-22T08:04:33;101989.19;;;32.42;20.62
45040;BME280;30778;53.574;7.770;2023-06-22T08:07:00;101980.94;;;32.13;20.79
45040;BME280;30778;53.574;7.770;2023-06-22T08:09:29;101978.91;;;32.15;20.36
45040;BME280;30778;53.574;7.770;2023-06-22T08:11:55;101974.44;;;31.99;19.97
45040;BME280;30778;53.574;7.770;2023-06-22T08:14:25;101975.47;;;31.58;20.77
45040;BME280;30778;53.574;7.770;2023-06-22T08:16:56;101973.88;;;30.92;21.62
45040;BME280;30778;53.574;7.770;2023-06-22T08:19:21;101969.56;;;31.55;21.79
45040;BME280;30778;53.574;7.770;2023-06-22T08:21:49;101971.09;;;32.20;19.79
45040;BME280;30778;53.574;7.770;2023-06-22T08:24:14;101956.66;;;30.93;21.30
45040;BME280;30778;53.574;7.770;2023-06-22T08:26:40;101964.19;;;31.38;20.91
45040;BME280;30778;53.574;7.770;2023-06-22T08:29:06;101964.00;;;31.48;20.99
45040;BME280;30778;53.574;7.770;2023-06-22T08:31:32;101960.69;;;31.13;21.33
45040;BME280;30778;53.574;7.770;2023-06-22T08:33:59;101963.88;;;31.81;20.71
45040;BME280;30778;53.574;7.770;2023-06-22T08:36:25;101959.06;;;31.91;20.98
45040;BME280;30778;53.574;7.770;2023-06-22T08:38:51;101958.59;;;31.56;21.14
45040;BME280;30778;53.574;7.770;2023-06-22T08:41:17;101952.94;;;31.18;21.70
45040;BME280;30778;53.574;7.770;2023-06-22T08:43:45;101952.28;;;31.08;21.76
45040;BME280;30778;53.574;7.770;2023-06-22T08:46:11;101952.09;;;30.44;22.74
45040;BME280;30778;53.574;7.770;2023-06-22T08:48:36;101958.03;;;30.64;22.63
45040;BME280;30778;53.574;7.770;2023-06-22T08:51:02;101950.75;;;31.14;22.24
45040;BME280;30778;53.574;7.770;2023-06-22T08:53:28;101945.22;;;30.74;23.00
45040;BME280;30778;53.574;7.770;2023-06-22T08:55:56;101944.03;;;31.57;21.86
45040;BME280;30778;53.574;7.770;2023-06-22T08:58:21;101947.00;;;31.71;22.28
45040;BME280;30778;53.574;7.770;2023-06-22T09:00:49;101946.81;;;31.33;21.59
45040;BME280;30778;53.574;7.770;2023-06-22T09:03:19;101940.81;;;30.90;22.77
45040;BME280;30778;53.574;7.770;2023-06-22T09:05:45;101937.75;;;30.93;21.80
45040;BME280;30778;53.574;7.770;2023-06-22T09:08:11;101935.88;;;31.18;22.55
45040;BME280;30778;53.574;7.770;2023-06-22T09:10:37;101936.06;;;31.00;22.81
45040;BME280;30778;53.574;7.770;2023-06-22T09:13:02;101937.44;;;31.12;22.03
45040;BME280;30778;53.574;7.770;2023-06-22T09:15:28;101942.75;;;31.37;20.81
45040;BME280;30778;53.574;7.770;2023-06-22T09:17:53;101950.19;;;31.27;21.59
45040;BME280;30778;53.574;7.770;2023-06-22T09:20:21;101950.41;;;31.09;22.19
45040;BME280;30778;53.574;7.770;2023-06-22T09:22:47;101940.97;;;30.96;21.20
45040;BME280;30778;53.574;7.770;2023-06-22T09:25:15;101936.09;;;30.92;21.02
45040;BME280;30778;53.574;7.770;2023-06-22T09:27:42;101948.28;;;30.63;21.47
45040;BME280;30778;53.574;7.770;2023-06-22T09:30:10;101939.13;;;31.05;21.71
45040;BME280;30778;53.574;7.770;2023-06-22T09:32:38;101934.41;;;30.42;22.59
45040;BME280;30778;53.574;7.770;2023-06-22T09:35:05;101934.97;;;28.91;23.28
45040;BME280;30778;53.574;7.770;2023-06-22T09:37:33;101935.94;;;29.08;23.68
45040;BME280;30778;53.574;7.770;2023-06-22T09:40:01;101932.44;;;29.50;22.62
45040;BME280;30778;53.574;7.770;2023-06-22T09:42:26;101938.41;;;29.28;23.81
45040;BME280;30778;53.574;7.770;2023-06-22T09:44:52;101929.53;;;29.70;23.13
45040;BME280;30778;53.574;7.770;2023-06-22T09:47:17;101931.91;;;28.86;23.80
45040;BME280;30778;53.574;7.770;2023-06-22T09:49:45;101925.69;;;28.50;25.14
45040;BME280;30778;53.574;7.770;2023-06-22T09:52:11;101929.56;;;28.29;24.16
45040;BME280;30778;53.574;7.770;2023-06-22T09:54:38;101935.25;;;27.99;24.88
45040;BME280;30778;53.574;7.770;2023-06-22T09:57:04;101937.50;;;27.85;25.10
45040;BME280;30778;53.574;7.770;2023-06-22T09:59:30;101935.50;;;27.13;25.85
45040;BME280;30778;53.574;7.770;2023-06-22T10:01:55;101928.63;;;27.38;26.63
45040;BME280;30778;53.574;7.770;2023-06-22T10:04:21;101929.81;;;27.16;26.93
45040;BME280;30778;53.574;7.770;2023-06-22T10:06:46;101918.25;;;27.05;26.12
45040;BME280;30778;53.574;7.770;2023-06-22T10:09:12;101916.84;;;27.21;26.74
45040;BME280;30778;53.574;7.770;2023-06-22T10:11:40;101924.72;;;27.22;26.05
45040;BME280;30778;53.574;7.770;2023-06-22T10:14:06;101918.41;;;27.51;26.47
45040;BME280;30778;53.574;7.770;2023-06-22T10:16:36;101913.47;;;27.46;25.39
45040;BME280;30778;53.574;7.770;2023-06-22T10:19:01;101916.53;;;27.89;25.41
45040;BME280;30778;53.574;7.770;2023-06-22T10:21:27;101911.56;;;27.66;25.89
45040;BME280;30778;53.574;7.770;2023-06-22T10:23:54;101904.66;;;28.27;25.92
45040;BME280;30778;53.574;7.770;2023-06-22T10:26:19;101918.44;;;28.24;25.48
45040;BME280;30778;53.574;7.770;2023-06-22T10:28:52;101912.91;;;27.80;26.28
45040;BME280;30778;53.574;7.770;2023-06-22T10:31:19;101913.72;;;28.08;26.83
45040;BME280;30778;53.574;7.770;2023-06-22T10:33:48;101904.56;;;27.83;26.07
45040;BME280;30778;53.574;7.770;2023-06-22T10:36:14;101907.53;;;27.80;26.28
45040;BME280;30778;53.574;7.770;2023-06-22T10:38:40;101905.53;;;27.82;24.59
45040;BME280;30778;53.574;7.770;2023-06-22T10:41:05;101891.00;;;28.39;24.27
45040;BME280;30778;53.574;7.770;2023-06-22T10:43:31;101892.47;;;27.87;26.13
45040;BME280;30778;53.574;7.770;2023-06-22T10:45:56;101891.88;;;27.93;26.25
45040;BME280;30778;53.574;7.770;2023-06-22T10:48:22;101895.69;;;27.73;26.81
45040;BME280;30778;53.574;7.770;2023-06-22T10:50:47;101888.22;;;27.39;27.08
45040;BME280;30778;53.574;7.770;2023-06-22T10:53:13;101881.00;;;27.12;27.21
45040;BME280;30778;53.574;7.770;2023-06-22T10:55:38;101884.41;;;26.95;27.43
45040;BME280;30778;53.574;7.770;2023-06-22T10:58:03;101880.53;;;26.40;28.63
45040;BME280;30778;53.574;7.770;2023-06-22T11:00:29;101878.94;;;26.77;27.28
45040;BME280;30778;53.574;7.770;2023-06-22T11:02:54;101878.16;;;27.14;27.35
45040;BME280;30778;53.574;7.770;2023-06-22T11:05:20;101877.94;;;26.87;26.81
45040;BME280;30778;53.574;7.770;2023-06-22T11:07:45;101872.34;;;26.61;27.44
45040;BME280;30778;53.574;7.770;2023-06-22T11:10:12;101874.88;;;26.43;27.32
45040;BME280;30778;53.574;7.770;2023-06-22T11:12:37;101871.78;;;26.38;27.57
45040;BME280;30778;53.574;7.770;2023-06-22T11:15:03;101872.75;;;26.66;28.37
45040;BME280;30778;53.574;7.770;2023-06-22T11:17:29;101868.63;;;26.82;27.76
45040;BME280;30778;53.574;7.770;2023-06-22T11:19:54;101864.59;;;27.05;26.87
45040;BME280;30778;53.574;7.770;2023-06-22T11:22:19;101860.66;;;27.00;26.23
45040;BME280;30778;53.574;7.770;2023-06-22T11:24:45;101867.94;;;27.27;27.00
45040;BME280;30778;53.574;7.770;2023-06-22T11:27:10;101861.94;;;27.05;26.94
45040;BME280;30778;53.574;7.770;2023-06-22T11:29:36;101870.06;;;27.23;26.87
45040;BME280;30778;53.574;7.770;2023-06-22T11:32:01;101869.41;;;27.02;27.24
45040;BME280;30778;53.574;7.770;2023-06-22T11:34:27;101862.19;;;27.02;26.71
45040;BME280;30778;53.574;7.770;2023-06-22T11:36:53;101853.13;;;26.56;27.63
45040;BME280;30778;53.574;7.770;2023-06-22T11:39:18;101863.16;;;27.21;26.92
45040;BME280;30778;53.574;7.770;2023-06-22T11:41:44;101860.72;;;27.55;26.71
45040;BME280;30778;53.574;7.770;2023-06-22T11:44:09;101853.56;;;27.73;27.24
45040;BME280;30778;53.574;7.770;2023-06-22T11:46:35;101846.16;;;27.85;27.85
45040;BME280;30778;53.574;7.770;2023-06-22T11:49:01;101847.69;;;27.60;27.18
45040;BME280;30778;53.574;7.770;2023-06-22T11:51:26;101860.66;;;27.09;27.98
45040;BME280;30778;53.574;7.770;2023-06-22T11:53:51;101860.56;;;27.29;27.64
45040;BME280;30778;53.574;7.770;2023-06-22T11:56:17;101855.59;;;26.97;27.73
45040;BME280;30778;53.574;7.770;2023-06-22T11:58:42;101853.72;;;26.31;29.08
45040;BME280;30778;53.574;7.770;2023-06-22T12:01:08;101851.13;;;26.78;28.53
45040;BME280;30778;53.574;7.770;2023-06-22T12:03:33;101849.03;;;26.72;28.94
45040;BME280;30778;53.574;7.770;2023-06-22T12:05:59;101850.06;;;26.32;29.33
45040;BME280;30778;53.574;7.770;2023-06-22T12:08:25;101855.41;;;26.61;28.64
45040;BME280;30778;53.574;7.770;2023-06-22T12:10:50;101839.78;;;26.94;28.57
45040;BME280;30778;53.574;7.770;2023-06-22T12:13:15;101841.31;;;27.06;27.32
45040;BME280;30778;53.574;7.770;2023-06-22T12:15:41;101842.75;;;26.90;28.32
45040;BME280;30778;53.574;7.770;2023-06-22T12:18:06;101839.47;;;27.16;27.79
45040;BME280;30778;53.574;7.770;2023-06-22T12:20:33;101836.31;;;27.76;26.57
45040;BME280;30778;53.574;7.770;2023-06-22T12:22:59;101831.53;;;26.58;28.07
45040;BME280;30778;53.574;7.770;2023-06-22T12:25:24;101841.75;;;27.01;27.33
45040;BME280;30778;53.574;7.770;2023-06-22T12:27:50;101838.81;;;27.32;28.07
45040;BME280;30778;53.574;7.770;2023-06-22T12:30:16;101837.38;;;27.38;26.62
45040;BME280;30778;53.574;7.770;2023-06-22T12:32:41;101836.63;;;26.70;27.64
45040;BME280;30778;53.574;7.770;2023-06-22T12:35:07;101831.00;;;26.15;27.34
45040;BME280;30778;53.574;7.770;2023-06-22T12:37:37;101822.63;;;26.67;27.31
45040;BME280;30778;53.574;7.770;2023-06-22T12:40:02;101824.31;;;26.78;27.70
45040;BME280;30778;53.574;7.770;2023-06-22T12:42:29;101826.50;;;27.02;27.88
45040;BME280;30778;53.574;7.770;2023-06-22T12:44:54;101824.69;;;26.93;27.10
45040;BME280;30778;53.574;7.770;2023-06-22T12:47:20;101821.28;;;26.14;27.36
45040;BME280;30778;53.574;7.770;2023-06-22T12:49:45;101815.88;;;25.75;28.52
45040;BME280;30778;53.574;7.770;2023-06-22T12:52:11;101817.63;;;26.05;28.90